sensor_id;sensor_type;location;lat;lon;timestamp;pressure;altitude;pressure_sealevel;temperature;humidity
7018;BME280;3549;42.162;24.726;2022-11-15T00:01:38;47749.72;;;-141.97;98.63
7018;BME280;3549;42.162;24.726;2022-11-15T00:04:05;47776.63;;;-141.97;98.95
7018;BME280;3549;42.162;24.726;2022-11-15T00:06:31;47761.25;;;-141.97;99.05
7018;BME280;3549;42.162;24.726;2022-11-15T00:09:00;47757.41;;;-141.97;98.90
7018;BME280;3549;42.162;24.726;2022-11-15T00:11:26;47653.63;;;-141.97;98.49
7018;BME280;3549;42.162;24.726;2022-11-15T00:13:54;47843.91;;;-141.97;98.46
7018;BME280;3549;42.162;24.726;2022-11-15T00:16:20;47934.25;;;-141.97;98.30
7018;BME280;3549;42.162;24.726;2022-11-15T00:18:45;47872.75;;;-141.97;98.30
7018;BME280;3549;42.162;24.726;2022-11-15T00:21:12;47855.44;;;-141.97;97.08
7018;BME280;3549;42.162;24.726;2022-11-15T00:23:38;47768.94;;;-141.97;96.61
7018;BME280;3549;42.162;24.726;2022-11-15T00:26:04;47776.63;;;-141.97;96.78
7018;BME280;3549;42.162;24.726;2022-11-15T00:28:30;47742.03;;;-141.97;96.71
7018;BME280;3549;42.162;24.726;2022-11-15T00:31:03;47659.38;;;-141.97;97.21
7018;BME280;3549;42.162;24.726;2022-11-15T00:33:29;47853.53;;;-141.97;97.88
7018;BME280;3549;42.162;24.726;2022-11-15T00:38:34;47788.19;;;-141.97;96.39
7018;BME280;3549;42.162;24.726;2022-11-15T00:41:00;47863.13;;;-141.97;96.88
7018;BME280;3549;42.162;24.726;2022-11-15T00:43:26;47872.75;;;-141.97;96.81
7018;BME280;3549;42.162;24.726;2022-11-15T00:45:51;47665.16;;;-141.97;95.97
7018;BME280;3549;42.162;24.726;2022-11-15T00:48:17;47836.22;;;-141.97;95.14
7018;BME280;3549;42.162;24.726;2022-11-15T00:50:43;47784.34;;;-141.97;94.22
7018;BME280;3549;42.162;24.726;2022-11-15T00:53:08;47849.69;;;-141.97;93.40
7018;BME280;3549;42.162;24.726;2022-11-15T00:55:33;47688.22;;;-141.97;93.18
7018;BME280;3549;42.162;24.726;2022-11-15T00:57:59;47834.31;;;-141.97;93.39
7018;BME280;3549;42.162;24.726;2022-11-15T01:00:24;47834.31;;;-141.97;93.17
7018;BME280;3549;42.162;24.726;2022-11-15T01:02:50;47709.38;;;-141.97;92.48
7018;BME280;3549;42.162;24.726;2022-11-15T01:05:15;47872.75;;;-141.97;92.15
7018;BME280;3549;42.162;24.726;2022-11-15T01:07:40;47876.59;;;-141.97;92.23
7018;BME280;3549;42.162;24.726;2022-11-15T01:10:07;47674.78;;;-141.97;91.85
7018;BME280;3549;42.162;24.726;2022-11-15T01:12:33;47805.47;;;-141.97;91.47
7018;BME280;3549;42.162;24.726;2022-11-15T01:14:58;47790.09;;;-141.97;91.49
7018;BME280;3549;42.162;24.726;2022-11-15T01:17:24;47936.19;;;-141.97;91.21
7018;BME280;3549;42.162;24.726;2022-11-15T01:19:53;47863.13;;;-141.97;91.08
7018;BME280;3549;42.162;24.726;2022-11-15T01:22:19;47749.72;;;-141.97;90.50
7018;BME280;3549;42.162;24.726;2022-11-15T01:24:44;47778.56;;;-141.97;90.95
7018;BME280;3549;42.162;24.726;2022-11-15T01:27:09;47718.97;;;-141.97;90.55
7018;BME280;3549;42.162;24.726;2022-11-15T01:29:35;47792.03;;;-141.97;90.92
7018;BME280;3549;42.162;24.726;2022-11-15T01:32:00;47686.31;;;-141.97;90.74
7018;BME280;3549;42.162;24.726;2022-11-15T01:34:26;47824.69;;;-141.97;90.77
7018;BME280;3549;42.162;24.726;2022-11-15T01:36:52;47815.09;;;-141.97;90.86
7018;BME280;3549;42.162;24.726;2022-11-15T01:39:17;47707.44;;;-141.97;91.38
7018;BME280;3549;42.162;24.726;2022-11-15T01:41:43;47817.00;;;-141.97;91.30
7018;BME280;3549;42.162;24.726;2022-11-15T01:46:57;47870.81;;;-141.97;92.23
7018;BME280;3549;42.162;24.726;2022-11-15T01:49:25;47788.19;;;-141.97;91.32
7018;BME280;3549;42.162;24.726;2022-11-15T01:51:54;47926.56;;;-141.97;91.06
7018;BME280;3549;42.162;24.726;2022-11-15T01:54:21;47753.56;;;-141.97;90.88
7018;BME280;3549;42.162;24.726;2022-11-15T01:56:59;47767.03;;;-141.97;90.92
7018;BME280;3549;42.162;24.726;2022-11-15T01:59:27;47872.75;;;-141.97;90.75
7018;BME280;3549;42.162;24.726;2022-11-15T02:01:52;47936.19;;;-141.97;90.64
7018;BME280;3549;42.162;24.726;2022-11-15T02:04:24;47811.25;;;-141.97;90.26
7018;BME280;3549;42.162;24.726;2022-11-15T02:06:50;47888.13;;;-141.97;90.31
7018;BME280;3549;42.162;24.726;2022-11-15T02:09:16;47799.72;;;-141.97;89.58
7018;BME280;3549;42.162;24.726;2022-11-15T02:11:42;47843.91;;;-141.97;89.44
7018;BME280;3549;42.162;24.726;2022-11-15T02:14:10;47863.13;;;-141.97;89.17
7018;BME280;3549;42.162;24.726;2022-11-15T02:25:17;47863.13;;;-141.97;88.85
7018;BME280;3549;42.162;24.726;2022-11-15T02:28:06;47830.47;;;-141.97;88.67
7018;BME280;3549;42.162;24.726;2022-11-15T02:30:47;47788.19;;;-141.97;88.62
7018;BME280;3549;42.162;24.726;2022-11-15T02:33:40;47840.06;;;-141.97;88.66
7018;BME280;3549;42.162;24.726;2022-11-15T02:36:12;47797.78;;;-141.97;88.40
7018;BME280;3549;42.162;24.726;2022-11-15T02:38:54;47840.06;;;-141.97;88.89
7018;BME280;3549;42.162;24.726;2022-11-15T02:41:28;47799.72;;;-141.97;89.35
7018;BME280;3549;42.162;24.726;2022-11-15T02:44:09;47849.69;;;-141.97;90.65
7018;BME280;3549;42.162;24.726;2022-11-15T02:46:43;47765.09;;;-141.97;90.96
7018;BME280;3549;42.162;24.726;2022-11-15T02:49:31;47920.81;;;-141.97;91.07
7018;BME280;3549;42.162;24.726;2022-11-15T02:51:57;47926.56;;;-141.97;91.82
7018;BME280;3549;42.162;24.726;2022-11-15T02:54:32;47805.47;;;-141.97;91.46
7018;BME280;3549;42.162;24.726;2022-11-15T02:57:03;47815.09;;;-141.97;91.32
7018;BME280;3549;42.162;24.726;2022-11-15T03:05:19;47847.75;;;-141.97;90.14
7018;BME280;3549;42.162;24.726;2022-11-15T03:13:26;47861.22;;;-141.97;90.71
7018;BME280;3549;42.162;24.726;2022-11-15T03:16:04;47747.81;;;-141.97;90.65
7018;BME280;3549;42.162;24.726;2022-11-15T03:18:38;47828.53;;;-141.97;90.63
7018;BME280;3549;42.162;24.726;2022-11-15T03:21:08;47722.81;;;-141.97;90.49
7018;BME280;3549;42.162;24.726;2022-11-15T03:23:37;47805.47;;;-141.97;90.43
7018;BME280;3549;42.162;24.726;2022-11-15T03:26:06;47792.03;;;-141.97;89.73
7018;BME280;3549;42.162;24.726;2022-11-15T03:29:01;47695.91;;;-141.97;89.20
7018;BME280;3549;42.162;24.726;2022-11-15T03:31:31;47699.75;;;-141.97;89.08
7018;BME280;3549;42.162;24.726;2022-11-15T03:36:50;47817.00;;;-141.97;88.54
7018;BME280;3549;42.162;24.726;2022-11-15T03:39:17;47882.38;;;-141.97;88.46
7018;BME280;3549;42.162;24.726;2022-11-15T03:47:24;47838.16;;;-141.97;88.73
7018;BME280;3549;42.162;24.726;2022-11-15T03:49:55;47768.94;;;-141.97;88.74
7018;BME280;3549;42.162;24.726;2022-11-15T03:52:23;47768.94;;;-141.97;89.04
7018;BME280;3549;42.162;24.726;2022-11-15T03:54:55;47772.78;;;-141.97;90.14
7018;BME280;3549;42.162;24.726;2022-11-15T03:57:21;47780.47;;;-141.97;90.28
7018;BME280;3549;42.162;24.726;2022-11-15T03:59:46;47853.53;;;-141.97;90.36
7018;BME280;3549;42.162;24.726;2022-11-15T04:02:13;47811.25;;;-141.97;91.57
7018;BME280;3549;42.162;24.726;2022-11-15T04:04:38;47838.16;;;-141.97;92.27
7018;BME280;3549;42.162;24.726;2022-11-15T04:07:04;47694.00;;;-141.97;92.32
7018;BME280;3549;42.162;24.726;2022-11-15T04:09:30;47913.13;;;-141.97;92.70
7018;BME280;3549;42.162;24.726;2022-11-15T04:11:55;47738.19;;;-141.97;93.20
7018;BME280;3549;42.162;24.726;2022-11-15T04:14:21;47745.88;;;-141.97;92.59
7018;BME280;3549;42.162;24.726;2022-11-15T04:16:46;47718.97;;;-141.97;92.53
7018;BME280;3549;42.162;24.726;2022-11-15T04:19:11;47732.44;;;-141.97;92.20
7018;BME280;3549;42.162;24.726;2022-11-15T04:21:55;47826.63;;;-141.97;91.59
7018;BME280;3549;42.162;24.726;2022-11-15T04:24:39;47901.59;;;-141.97;91.34
7018;BME280;3549;42.162;24.726;2022-11-15T04:27:05;47757.41;;;-141.97;91.55
7018;BME280;3549;42.162;24.726;2022-11-15T04:29:30;47803.56;;;-141.97;91.32
7018;BME280;3549;42.162;24.726;2022-11-15T04:32:03;47784.34;;;-141.97;91.28
7018;BME280;3549;42.162;24.726;2022-11-15T04:34:29;47795.88;;;-141.97;92.36
7018;BME280;3549;42.162;24.726;2022-11-15T04:36:54;47807.41;;;-141.97;93.16
7018;BME280;3549;42.162;24.726;2022-11-15T04:39:42;47851.59;;;-141.97;93.05
7018;BME280;3549;42.162;24.726;2022-11-15T04:42:08;47836.22;;;-141.97;92.74
7018;BME280;3549;42.162;24.726;2022-11-15T04:44:34;47801.63;;;-141.97;92.16
7018;BME280;3549;42.162;24.726;2022-11-15T04:47:00;47811.25;;;-141.97;92.65
7018;BME280;3549;42.162;24.726;2022-11-15T04:49:26;47695.91;;;-141.97;92.50
7018;BME280;3549;42.162;24.726;2022-11-15T04:51:51;47807.41;;;-141.97;92.49
7018;BME280;3549;42.162;24.726;2022-11-15T04:54:17;47759.34;;;-141.97;91.92
7018;BME280;3549;42.162;24.726;2022-11-15T04:56:42;47715.13;;;-141.97;92.06
7018;BME280;3549;42.162;24.726;2022-11-15T04:59:08;47820.84;;;-141.97;91.92
7018;BME280;3549;42.162;24.726;2022-11-15T05:01:33;47815.09;;;-141.97;91.43
7018;BME280;3549;42.162;24.726;2022-11-15T05:03:59;47818.94;;;-141.97;92.39
7018;BME280;3549;42.162;24.726;2022-11-15T05:06:42;47786.25;;;-141.97;92.52
7018;BME280;3549;42.162;24.726;2022-11-15T05:09:08;47782.41;;;-141.97;92.55
7018;BME280;3549;42.162;24.726;2022-11-15T05:11:33;47797.78;;;-141.97;92.57
7018;BME280;3549;42.162;24.726;2022-11-15T05:13:59;47780.47;;;-141.97;91.70
7018;BME280;3549;42.162;24.726;2022-11-15T05:16:24;47759.34;;;-141.97;92.01
7018;BME280;3549;42.162;24.726;2022-11-15T05:18:53;47765.09;;;-141.97;91.92
7018;BME280;3549;42.162;24.726;2022-11-15T05:21:19;47836.22;;;-141.97;91.63
7018;BME280;3549;42.162;24.726;2022-11-15T05:23:45;47803.56;;;-141.97;91.25
7018;BME280;3549;42.162;24.726;2022-11-15T05:26:11;47778.56;;;-141.97;90.88
7018;BME280;3549;42.162;24.726;2022-11-15T05:28:37;47780.47;;;-141.97;90.54
7018;BME280;3549;42.162;24.726;2022-11-15T05:31:08;47888.13;;;-141.97;90.17
7018;BME280;3549;42.162;24.726;2022-11-15T05:33:35;47880.44;;;-141.97;89.60
7018;BME280;3549;42.162;24.726;2022-11-15T05:36:06;47811.25;;;-141.97;89.25
7018;BME280;3549;42.162;24.726;2022-11-15T05:38:33;47815.09;;;-141.97;88.40
7018;BME280;3549;42.162;24.726;2022-11-15T05:41:00;47888.13;;;-141.97;88.54
7018;BME280;3549;42.162;24.726;2022-11-15T05:43:26;47853.53;;;-141.97;89.21
7018;BME280;3549;42.162;24.726;2022-11-15T05:45:52;47882.38;;;-141.97;90.00
7018;BME280;3549;42.162;24.726;2022-11-15T05:48:17;47820.84;;;-141.97;89.66
7018;BME280;3549;42.162;24.726;2022-11-15T05:50:45;47899.66;;;-141.97;89.36
7018;BME280;3549;42.162;24.726;2022-11-15T05:53:13;47651.69;;;-141.97;88.60
7018;BME280;3549;42.162;24.726;2022-11-15T05:55:40;47694.00;;;-141.97;88.19
7018;BME280;3549;42.162;24.726;2022-11-15T05:58:06;47888.13;;;-141.97;87.72
7018;BME280;3549;42.162;24.726;2022-11-15T06:00:32;47842.00;;;-141.97;86.96
7018;BME280;3549;42.162;24.726;2022-11-15T06:02:58;47903.50;;;-141.97;86.31
7018;BME280;3549;42.162;24.726;2022-11-15T06:05:23;47945.81;;;-141.97;86.46
7018;BME280;3549;42.162;24.726;2022-11-15T06:07:48;47859.28;;;-141.97;85.97
7018;BME280;3549;42.162;24.726;2022-11-15T06:10:14;47930.41;;;-141.97;85.63
7018;BME280;3549;42.162;24.726;2022-11-15T06:12:39;47670.91;;;-141.97;84.45
7018;BME280;3549;42.162;24.726;2022-11-15T06:15:05;47722.81;;;-141.97;82.69
7018;BME280;3549;42.162;24.726;2022-11-15T06:17:32;47822.78;;;-141.97;82.27
7018;BME280;3549;42.162;24.726;2022-11-15T06:19:58;47913.13;;;-141.97;82.07
7018;BME280;3549;42.162;24.726;2022-11-15T06:22:24;47792.03;;;-141.97;81.57
7018;BME280;3549;42.162;24.726;2022-11-15T06:24:49;47888.13;;;-141.97;82.09
7018;BME280;3549;42.162;24.726;2022-11-15T06:27:15;47868.91;;;-141.97;81.63
7018;BME280;3549;42.162;24.726;2022-11-15T06:29:40;47738.19;;;-141.97;81.80
7018;BME280;3549;42.162;24.726;2022-11-15T06:32:05;47826.63;;;-141.97;81.78
7018;BME280;3549;42.162;24.726;2022-11-15T06:34:31;47888.13;;;-141.97;81.03
7018;BME280;3549;42.162;24.726;2022-11-15T06:36:56;47774.72;;;-141.97;80.16
7018;BME280;3549;42.162;24.726;2022-11-15T06:39:22;47836.22;;;-141.97;79.69
7018;BME280;3549;42.162;24.726;2022-11-15T06:41:47;47834.31;;;-141.97;79.43
7018;BME280;3549;42.162;24.726;2022-11-15T06:44:13;47832.38;;;-141.97;79.03
7018;BME280;3549;42.162;24.726;2022-11-15T06:46:38;47678.63;;;-141.97;78.88
7018;BME280;3549;42.162;24.726;2022-11-15T06:49:04;47930.41;;;-141.97;79.31
7018;BME280;3549;42.162;24.726;2022-11-15T06:51:29;47876.59;;;-141.97;79.48
7018;BME280;3549;42.162;24.726;2022-11-15T06:53:55;47755.50;;;-141.97;79.83
7018;BME280;3549;42.162;24.726;2022-11-15T06:56:20;47870.81;;;-141.97;80.04
7018;BME280;3549;42.162;24.726;2022-11-15T06:58:46;47782.41;;;-141.97;79.95
7018;BME280;3549;42.162;24.726;2022-11-15T07:01:12;47811.25;;;-141.97;79.49
7018;BME280;3549;42.162;24.726;2022-11-15T07:03:40;47888.13;;;-141.97;79.27
7018;BME280;3549;42.162;24.726;2022-11-15T07:06:07;47805.47;;;-141.97;78.23
7018;BME280;3549;42.162;24.726;2022-11-15T07:08:34;47784.34;;;-141.97;78.54
7018;BME280;3549;42.162;24.726;2022-11-15T07:11:04;47924.66;;;-141.97;78.49
7018;BME280;3549;42.162;24.726;2022-11-15T07:13:31;47788.19;;;-141.97;77.64
7018;BME280;3549;42.162;24.726;2022-11-15T07:16:07;47776.63;;;-141.97;76.54
7018;BME280;3549;42.162;24.726;2022-11-15T07:18:35;47672.84;;;-141.97;76.40
7018;BME280;3549;42.162;24.726;2022-11-15T07:21:07;47713.22;;;-141.97;76.20
7018;BME280;3549;42.162;24.726;2022-11-15T07:23:36;47742.03;;;-141.97;76.26
7018;BME280;3549;42.162;24.726;2022-11-15T07:26:03;47695.91;;;-141.97;74.87
7018;BME280;3549;42.162;24.726;2022-11-15T07:28:28;47717.06;;;-141.97;73.91
7018;BME280;3549;42.162;24.726;2022-11-15T07:30:54;47738.19;;;-141.97;72.25
7018;BME280;3549;42.162;24.726;2022-11-15T07:33:20;47911.19;;;-141.97;71.49
7018;BME280;3549;42.162;24.726;2022-11-15T07:35:45;47657.47;;;-141.97;71.76
7018;BME280;3549;42.162;24.726;2022-11-15T07:38:14;47918.88;;;-141.97;72.77
7018;BME280;3549;42.162;24.726;2022-11-15T07:40:40;47761.25;;;-141.97;72.01
7018;BME280;3549;42.162;24.726;2022-11-15T07:43:07;47865.06;;;-141.97;71.37
7018;BME280;3549;42.162;24.726;2022-11-15T07:45:48;47834.31;;;-141.97;72.50
7018;BME280;3549;42.162;24.726;2022-11-15T07:48:46;47818.94;;;-141.97;71.92
7018;BME280;3549;42.162;24.726;2022-11-15T07:51:13;47736.28;;;-141.97;72.21
7018;BME280;3549;42.162;24.726;2022-11-15T07:53:39;47903.50;;;-141.97;71.04
7018;BME280;3549;42.162;24.726;2022-11-15T07:56:11;47878.53;;;-141.97;70.47
7018;BME280;3549;42.162;24.726;2022-11-15T07:58:37;47818.94;;;-141.97;70.88
7018;BME280;3549;42.162;24.726;2022-11-15T08:01:07;47711.28;;;-141.97;70.35
7018;BME280;3549;42.162;24.726;2022-11-15T08:03:33;47911.19;;;-141.97;69.33
7018;BME280;3549;42.162;24.726;2022-11-15T08:05:58;47811.25;;;-141.97;68.99
7018;BME280;3549;42.162;24.726;2022-11-15T08:08:27;47826.63;;;-141.97;67.70
7018;BME280;3549;42.162;24.726;2022-11-15T08:10:52;47832.38;;;-141.97;66.33
7018;BME280;3549;42.162;24.726;2022-11-15T08:13:18;47830.47;;;-141.97;64.64
7018;BME280;3549;42.162;24.726;2022-11-15T08:15:44;47745.88;;;-141.97;63.50
7018;BME280;3549;42.162;24.726;2022-11-15T08:18:14;47799.72;;;-141.97;62.36
7018;BME280;3549;42.162;24.726;2022-11-15T08:20:41;47795.88;;;-141.97;63.22
7018;BME280;3549;42.162;24.726;2022-11-15T08:23:07;47805.47;;;-141.97;62.71
7018;BME280;3549;42.162;24.726;2022-11-15T08:25:33;47703.59;;;-141.97;62.14
7018;BME280;3549;42.162;24.726;2022-11-15T08:28:01;47665.16;;;-141.97;61.61
7018;BME280;3549;42.162;24.726;2022-11-15T08:30:28;47661.31;;;-141.97;61.22
7018;BME280;3549;42.162;24.726;2022-11-15T08:32:55;47703.59;;;-141.97;62.84
7018;BME280;3549;42.162;24.726;2022-11-15T08:35:21;47918.88;;;-141.97;62.45
7018;BME280;3549;42.162;24.726;2022-11-15T08:37:46;47849.69;;;-141.97;61.06
7018;BME280;3549;42.162;24.726;2022-11-15T08:40:12;47592.13;;;-141.97;60.66
7018;BME280;3549;42.162;24.726;2022-11-15T08:42:39;47770.88;;;-141.97;60.15
7018;BME280;3549;42.162;24.726;2022-11-15T08:45:05;47768.94;;;-141.97;60.35
7018;BME280;3549;42.162;24.726;2022-11-15T08:47:31;47797.78;;;-141.97;59.92
7018;BME280;3549;42.162;24.726;2022-11-15T08:49:56;47686.31;;;-141.97;61.30
7018;BME280;3549;42.162;24.726;2022-11-15T08:52:21;47801.63;;;-141.97;61.33
7018;BME280;3549;42.162;24.726;2022-11-15T08:54:47;47730.50;;;-141.97;62.67
7018;BME280;3549;42.162;24.726;2022-11-15T08:57:13;47788.19;;;-141.97;63.36
7018;BME280;3549;42.162;24.726;2022-11-15T08:59:38;47784.34;;;-141.97;62.49
7018;BME280;3549;42.162;24.726;2022-11-15T09:02:04;47767.03;;;-141.97;61.22
7018;BME280;3549;42.162;24.726;2022-11-15T09:04:30;47813.16;;;-141.97;60.80
7018;BME280;3549;42.162;24.726;2022-11-15T09:06:56;47767.03;;;-141.97;60.38
7018;BME280;3549;42.162;24.726;2022-11-15T09:09:22;47757.41;;;-141.97;58.91
7018;BME280;3549;42.162;24.726;2022-11-15T09:11:47;47722.81;;;-141.97;58.67
7018;BME280;3549;42.162;24.726;2022-11-15T09:14:13;47797.78;;;-141.97;59.12
7018;BME280;3549;42.162;24.726;2022-11-15T09:16:39;47580.59;;;-141.97;60.72
7018;BME280;3549;42.162;24.726;2022-11-15T09:19:04;47730.50;;;-141.97;60.52
7018;BME280;3549;42.162;24.726;2022-11-15T09:21:30;47826.63;;;-141.97;59.74
7018;BME280;3549;42.162;24.726;2022-11-15T09:23:56;47849.69;;;-141.97;57.97
7018;BME280;3549;42.162;24.726;2022-11-15T09:26:21;47793.94;;;-141.97;56.88
7018;BME280;3549;42.162;24.726;2022-11-15T09:28:47;47688.22;;;-141.97;56.65
7018;BME280;3549;42.162;24.726;2022-11-15T09:31:13;47738.19;;;-141.97;56.80
7018;BME280;3549;42.162;24.726;2022-11-15T09:33:38;47784.34;;;-141.97;57.71
7018;BME280;3549;42.162;24.726;2022-11-15T09:36:06;47724.75;;;-141.97;57.40
7018;BME280;3549;42.162;24.726;2022-11-15T09:38:32;47707.44;;;-141.97;56.60
7018;BME280;3549;42.162;24.726;2022-11-15T09:49:01;47767.03;;;-141.97;57.66
7018;BME280;3549;42.162;24.726;2022-11-15T09:51:34;47749.72;;;-141.97;56.73
7018;BME280;3549;42.162;24.726;2022-11-15T09:56:29;47743.97;;;-141.97;56.52
7018;BME280;3549;42.162;24.726;2022-11-15T10:01:39;47753.56;;;-141.97;56.59
7018;BME280;3549;42.162;24.726;2022-11-15T10:04:07;47742.03;;;-141.97;56.26
7018;BME280;3549;42.162;24.726;2022-11-15T10:06:34;47751.66;;;-141.97;56.14
7018;BME280;3549;42.162;24.726;2022-11-15T10:09:07;47770.88;;;-141.97;56.20
7018;BME280;3549;42.162;24.726;2022-11-15T10:11:38;47763.19;;;-141.97;55.64
7018;BME280;3549;42.162;24.726;2022-11-15T10:14:14;47753.56;;;-141.97;57.96
7018;BME280;3549;42.162;24.726;2022-11-15T10:24:50;47747.81;;;-141.97;55.00
7018;BME280;3549;42.162;24.726;2022-11-15T10:27:18;47742.03;;;-141.97;54.44
7018;BME280;3549;42.162;24.726;2022-11-15T10:29:47;47768.94;;;-141.97;54.01
7018;BME280;3549;42.162;24.726;2022-11-15T10:32:15;47767.03;;;-141.97;53.50
7018;BME280;3549;42.162;24.726;2022-11-15T10:34:41;47805.47;;;-141.97;52.62
7018;BME280;3549;42.162;24.726;2022-11-15T10:37:06;47761.25;;;-141.97;53.01
7018;BME280;3549;42.162;24.726;2022-11-15T10:39:32;47753.56;;;-141.97;53.45
7018;BME280;3549;42.162;24.726;2022-11-15T10:42:28;47790.09;;;-141.97;54.48
7018;BME280;3549;42.162;24.726;2022-11-15T10:44:54;47768.94;;;-141.97;53.39
7018;BME280;3549;42.162;24.726;2022-11-15T10:47:28;47757.41;;;-141.97;52.45
7018;BME280;3549;42.162;24.726;2022-11-15T10:50:11;47757.41;;;-141.97;52.74
7018;BME280;3549;42.162;24.726;2022-11-15T10:52:51;47740.13;;;-141.97;52.83
7018;BME280;3549;42.162;24.726;2022-11-15T10:57:49;47772.78;;;-141.97;53.04
7018;BME280;3549;42.162;24.726;2022-11-15T11:05:31;47765.09;;;-141.97;52.28
7018;BME280;3549;42.162;24.726;2022-11-15T11:08:04;47738.19;;;-141.97;51.61
7018;BME280;3549;42.162;24.726;2022-11-15T11:10:30;47897.75;;;-141.97;52.03
7018;BME280;3549;42.162;24.726;2022-11-15T11:13:12;47718.97;;;-141.97;52.03
7018;BME280;3549;42.162;24.726;2022-11-15T11:15:38;47749.72;;;-141.97;52.53
7018;BME280;3549;42.162;24.726;2022-11-15T11:18:18;47767.03;;;-141.97;51.38
7018;BME280;3549;42.162;24.726;2022-11-15T11:21:09;47790.09;;;-141.97;51.15
7018;BME280;3549;42.162;24.726;2022-11-15T11:23:59;47717.06;;;-141.97;51.74
7018;BME280;3549;42.162;24.726;2022-11-15T11:26:42;47703.59;;;-141.97;51.45
7018;BME280;3549;42.162;24.726;2022-11-15T11:32:35;47751.66;;;-141.97;53.76
7018;BME280;3549;42.162;24.726;2022-11-15T11:35:11;47768.94;;;-141.97;53.81
7018;BME280;3549;42.162;24.726;2022-11-15T11:37:56;47747.81;;;-141.97;53.40
7018;BME280;3549;42.162;24.726;2022-11-15T11:41:00;47753.56;;;-141.97;54.02
7018;BME280;3549;42.162;24.726;2022-11-15T11:43:38;47724.75;;;-141.97;54.19
7018;BME280;3549;42.162;24.726;2022-11-15T11:46:19;47799.72;;;-141.97;54.33
7018;BME280;3549;42.162;24.726;2022-11-15T11:51:36;47688.22;;;-141.97;54.48
7018;BME280;3549;42.162;24.726;2022-11-15T11:54:24;47753.56;;;-141.97;55.11
7018;BME280;3549;42.162;24.726;2022-11-15T11:56:52;47772.78;;;-141.97;55.64
7018;BME280;3549;42.162;24.726;2022-11-15T11:59:50;47726.66;;;-141.97;56.20
7018;BME280;3549;42.162;24.726;2022-11-15T12:02:28;47740.13;;;-141.97;57.12
7018;BME280;3549;42.162;24.726;2022-11-15T12:05:03;47738.19;;;-141.97;57.11
7018;BME280;3549;42.162;24.726;2022-11-15T12:07:32;47776.63;;;-141.97;55.96
7018;BME280;3549;42.162;24.726;2022-11-15T12:12:49;47772.78;;;-141.97;55.93
7018;BME280;3549;42.162;24.726;2022-11-15T12:15:19;47724.75;;;-141.97;56.04
7018;BME280;3549;42.162;24.726;2022-11-15T12:17:46;47715.13;;;-141.97;57.28
7018;BME280;3549;42.162;24.726;2022-11-15T12:20:21;47788.19;;;-141.97;57.42
7018;BME280;3549;42.162;24.726;2022-11-15T12:29:03;47761.25;;;-141.97;56.50
7018;BME280;3549;42.162;24.726;2022-11-15T12:31:36;47711.28;;;-141.97;56.56
7018;BME280;3549;42.162;24.726;2022-11-15T12:34:15;47670.91;;;-141.97;56.22
7018;BME280;3549;42.162;24.726;2022-11-15T12:36:42;47876.59;;;-141.97;55.99
7018;BME280;3549;42.162;24.726;2022-11-15T12:39:13;47834.31;;;-141.97;56.16
7018;BME280;3549;42.162;24.726;2022-11-15T12:41:41;47915.03;;;-141.97;56.62
7018;BME280;3549;42.162;24.726;2022-11-15T12:59:58;47801.63;;;-141.97;55.27
7018;BME280;3549;42.162;24.726;2022-11-15T13:05:19;47745.88;;;-141.97;55.90
7018;BME280;3549;42.162;24.726;2022-11-15T13:22:49;47684.38;;;-141.97;55.44
7018;BME280;3549;42.162;24.726;2022-11-15T13:30:39;47897.75;;;-141.97;55.77
7018;BME280;3549;42.162;24.726;2022-11-15T13:33:13;47753.56;;;-141.97;56.01
7018;BME280;3549;42.162;24.726;2022-11-15T13:35:41;47753.56;;;-141.97;56.03
7018;BME280;3549;42.162;24.726;2022-11-15T13:38:18;47790.09;;;-141.97;55.26
7018;BME280;3549;42.162;24.726;2022-11-15T13:40:48;47707.44;;;-141.97;55.40
7018;BME280;3549;42.162;24.726;2022-11-15T13:46:15;47776.63;;;-141.97;55.36
7018;BME280;3549;42.162;24.726;2022-11-15T13:48:41;47809.31;;;-141.97;56.62
7018;BME280;3549;42.162;24.726;2022-11-15T13:51:13;47768.94;;;-141.97;57.85
7018;BME280;3549;42.162;24.726;2022-11-15T13:53:44;47740.13;;;-141.97;58.04
7018;BME280;3549;42.162;24.726;2022-11-15T13:56:12;47759.34;;;-141.97;58.83
7018;BME280;3549;42.162;24.726;2022-11-15T13:58:38;47755.50;;;-141.97;59.65
7018;BME280;3549;42.162;24.726;2022-11-15T14:01:05;47876.59;;;-141.97;60.53
7018;BME280;3549;42.162;24.726;2022-11-15T14:03:33;47826.63;;;-141.97;60.91
7018;BME280;3549;42.162;24.726;2022-11-15T14:06:13;47765.09;;;-141.97;62.00
7018;BME280;3549;42.162;24.726;2022-11-15T14:09:01;47784.34;;;-141.97;62.01
7018;BME280;3549;42.162;24.726;2022-11-15T14:11:27;47740.13;;;-141.97;62.55
7018;BME280;3549;42.162;24.726;2022-11-15T14:16:38;47686.31;;;-141.97;62.38
7018;BME280;3549;42.162;24.726;2022-11-15T14:19:05;47788.19;;;-141.97;62.44
7018;BME280;3549;42.162;24.726;2022-11-15T14:21:31;47765.09;;;-141.97;62.75
7018;BME280;3549;42.162;24.726;2022-11-15T14:26:41;47751.66;;;-141.97;63.52
7018;BME280;3549;42.162;24.726;2022-11-15T14:29:27;47786.25;;;-141.97;63.81
7018;BME280;3549;42.162;24.726;2022-11-15T14:31:54;47753.56;;;-141.97;64.63
7018;BME280;3549;42.162;24.726;2022-11-15T14:34:32;47782.41;;;-141.97;65.76
7018;BME280;3549;42.162;24.726;2022-11-15T14:36:57;47699.75;;;-141.97;66.60
7018;BME280;3549;42.162;24.726;2022-11-15T14:39:22;47707.44;;;-141.97;67.10
7018;BME280;3549;42.162;24.726;2022-11-15T14:41:50;47807.41;;;-141.97;67.54
7018;BME280;3549;42.162;24.726;2022-11-15T14:44:15;47776.63;;;-141.97;67.61
7018;BME280;3549;42.162;24.726;2022-11-15T14:46:43;47807.41;;;-141.97;68.14
7018;BME280;3549;42.162;24.726;2022-11-15T14:49:09;47792.03;;;-141.97;68.49
7018;BME280;3549;42.162;24.726;2022-11-15T14:51:34;47805.47;;;-141.97;69.22
7018;BME280;3549;42.162;24.726;2022-11-15T14:54:00;47767.03;;;-141.97;69.69
7018;BME280;3549;42.162;24.726;2022-11-15T14:56:26;47853.53;;;-141.97;70.12
7018;BME280;3549;42.162;24.726;2022-11-15T14:58:51;47722.81;;;-141.97;70.41
7018;BME280;3549;42.162;24.726;2022-11-15T15:01:21;47759.34;;;-141.97;71.26
7018;BME280;3549;42.162;24.726;2022-11-15T15:03:46;47778.56;;;-141.97;70.80
7018;BME280;3549;42.162;24.726;2022-11-15T15:06:12;47672.84;;;-141.97;71.60